»·PEaware :: SKW5452 KSFO-KFAT

SKW5452 :: KSFO-KFAT

FLIGHT INFORMATION

Flight Status: Arrived
Operator:
SkyWest Airlines
More flights by this operator :: More flights under this callsign
Pilot: Leszek K. (20637)
Aircraft: CANADAIR CL-600 CRJ-200
(CRJ2)
More flights by this aircraft type
Origin: KSFO San Francisco Intl
United States
Destination: KFAT Fresno Yosemite Intl
United States
More flights between these airports :: More routes between these airports
Route: +WESLA4 NTELL
File this flight plan on PilotEdge
Remarks: PBN / A1B1C1D1L1O1S1 NAV / RNVD1E2A1 DOF / 181003 REG / N770SK RVR / 200
Altitude:
(Current/Filed)
19,000ft
Speed:
(Current/Filed)
74kts
Departed: 03-Oct-18 07:14 PM
Arrived: 03-Oct-18 07:52 PM
Distance/Time
Traveled:
137nm/0:38
Distance/Time
To Go:
Arrived

Flight Plot

Page will automatically refresh every two minutes.

Flight plan parsing failed; only flown route is shown


Map Options




Map Legend


Flown Route
Filed Route
Departure Airport
Arrival Airport
Navaid (VOR, NDB)
Fix

Horizontal Profiles

Position Reports

Time Latitude Longitude Heading Altitude Ground
Speed
03-Oct-18 18:37 37.620585 -122.386421 301 20ft 0kts
03-Oct-18 18:38 37.620585 -122.386421 301 20ft 0kts
03-Oct-18 18:39 37.620585 -122.386421 301 20ft 0kts
03-Oct-18 18:40 37.620585 -122.386421 301 20ft 0kts
03-Oct-18 18:41 37.620585 -122.386421 301 20ft 0kts
03-Oct-18 18:42 37.620585 -122.386421 301 20ft 0kts
03-Oct-18 18:43 37.620585 -122.386421 301 20ft 0kts
03-Oct-18 18:44 37.620585 -122.386421 301 20ft 0kts
03-Oct-18 18:45 37.620585 -122.386421 301 20ft 0kts
03-Oct-18 18:46 37.620585 -122.386421 301 20ft 0kts
03-Oct-18 18:47 37.620585 -122.386421 301 20ft 0kts
03-Oct-18 18:48 37.620585 -122.386421 301 20ft 0kts
03-Oct-18 18:49 37.620585 -122.386421 301 20ft 0kts
03-Oct-18 18:50 37.620585 -122.386421 301 20ft 0kts
03-Oct-18 18:51 37.620585 -122.386421 301 20ft 0kts
03-Oct-18 18:52 37.620585 -122.386421 301 20ft 0kts
03-Oct-18 18:53 37.620585 -122.386421 301 20ft 0kts
03-Oct-18 18:54 37.620585 -122.386421 301 20ft 0kts
03-Oct-18 18:55 37.620585 -122.386421 301 20ft 0kts
03-Oct-18 18:56 37.620585 -122.386421 301 20ft 0kts
03-Oct-18 18:57 37.620585 -122.386421 301 20ft 0kts
03-Oct-18 18:58 37.620585 -122.386421 301 20ft 0kts
03-Oct-18 18:59 37.620585 -122.386421 301 20ft 0kts
03-Oct-18 19:00 37.620585 -122.386421 301 20ft 0kts
03-Oct-18 19:01 37.620585 -122.386421 301 20ft 0kts
03-Oct-18 19:02 37.620585 -122.386421 301 20ft 0kts
03-Oct-18 19:03 37.620585 -122.386421 301 20ft 0kts
03-Oct-18 19:04 37.620181 -122.385970 5 20ft 2kts
03-Oct-18 19:05 37.620103 -122.385997 25 20ft 0kts
03-Oct-18 19:06 37.620105 -122.385996 25 20ft 0kts
03-Oct-18 19:07 37.620107 -122.385995 25 20ft 0kts
03-Oct-18 19:08 37.620109 -122.385994 25 20ft 0kts
03-Oct-18 19:09 37.620881 -122.385114 93 20ft 8kts
03-Oct-18 19:10 37.619313 -122.381143 118 20ft 12kts
03-Oct-18 19:11 37.617685 -122.376675 111 20ft 15kts
03-Oct-18 19:12 37.615673 -122.371429 118 20ft 17kts
03-Oct-18 19:13 37.612969 -122.366027 116 20ft 18kts
03-Oct-18 19:14 37.610789 -122.360873 117 20ft 12kts
03-Oct-18 19:15 37.611675 -122.358570 6 20ft 3kts
03-Oct-18 19:16 37.617441 -122.372002 298 21ft 147kts
03-Oct-18 19:17 37.639507 -122.420946 294 1746ft 199kts
03-Oct-18 19:18 37.659279 -122.491134 253 4362ft 236kts
03-Oct-18 19:19 37.598487 -122.513424 167 7139ft 266kts
03-Oct-18 19:20 37.525448 -122.485318 162 10098ft 281kts
03-Oct-18 19:21 37.463128 -122.431842 112 12704ft 294kts
03-Oct-18 19:22 37.417273 -122.346350 133 15035ft 305kts
03-Oct-18 19:23 37.390551 -122.237758 98 16545ft 345kts
03-Oct-18 19:24 37.367794 -122.117687 105 18576ft 360kts
03-Oct-18 19:25 37.343076 -121.994432 103 18967ft 363kts
03-Oct-18 19:26 37.318128 -121.870336 104 18956ft 367kts
03-Oct-18 19:27 37.293252 -121.747157 104 18944ft 358kts
03-Oct-18 19:28 37.268650 -121.626294 104 18956ft 360kts
03-Oct-18 19:29 37.243585 -121.504136 104 18971ft 363kts
03-Oct-18 19:30 37.218126 -121.380808 104 18975ft 366kts
03-Oct-18 19:31 37.192572 -121.257397 105 18985ft 365kts
03-Oct-18 19:32 37.166891 -121.134358 105 18985ft 363kts
03-Oct-18 19:33 37.141375 -121.012240 105 18981ft 361kts
03-Oct-18 19:34 37.115785 -120.890402 105 17672ft 353kts
03-Oct-18 19:35 37.091250 -120.774155 105 15869ft 339kts
03-Oct-18 19:36 37.066989 -120.661241 106 14070ft 333kts
03-Oct-18 19:37 37.043343 -120.549616 106 12268ft 329kts
03-Oct-18 19:38 37.019744 -120.440159 106 10469ft 314kts
03-Oct-18 19:39 36.998770 -120.342932 107 9996ft 271kts
03-Oct-18 19:40 36.978930 -120.250888 107 10001ft 280kts
03-Oct-18 19:41 36.958094 -120.155282 107 9998ft 281kts
03-Oct-18 19:42 36.937709 -120.062232 107 9999ft 275kts
03-Oct-18 19:43 36.896382 -119.985923 132 10002ft 263kts
03-Oct-18 19:44 36.847836 -119.916665 132 9414ft 273kts
03-Oct-18 19:45 36.798277 -119.846671 132 7591ft 262kts
03-Oct-18 19:46 36.750911 -119.779710 132 5765ft 253kts
03-Oct-18 19:47 36.705116 -119.713857 133 4123ft 244kts
03-Oct-18 19:48 36.664010 -119.652608 132 3608ft 224kts
03-Oct-18 19:49 36.645247 -119.584111 60 2827ft 240kts
03-Oct-18 19:50 36.695252 -119.574537 313 2020ft 176kts
03-Oct-18 19:51 36.717954 -119.611846 298 1651ft 161kts
03-Oct-18 19:52 36.746995 -119.665344 305 1081ft 140kts
03-Oct-18 19:53 36.768526 -119.702942 304 355ft 127kts
03-Oct-18 19:54 36.776489 -119.718239 270 343ft 6kts
03-Oct-18 19:55 36.775451 -119.720383 172 343ft 12kts
03-Oct-18 19:56 36.773062 -119.718754 122 343ft 12kts
03-Oct-18 19:57 36.771633 -119.716002 142 343ft 9kts
03-Oct-18 19:58 36.770895 -119.716433 274 343ft 1kts
03-Oct-18 19:59 36.770904 -119.716567 274 343ft 0kts
03-Oct-18 20:00 36.770904 -119.716567 274 343ft 0kts
03-Oct-18 20:01 36.770904 -119.716567 274 343ft 0kts
03-Oct-18 20:02 36.770904 -119.716567 274 343ft 0kts

Navigation Log

Ident Type
Flight plan parsing failed, navigation log unavailable